Hovedside
METAR-TAF:

METAR-TAF

Lufthavner :

Reykjavík lufthavn

Reykjavík, Island

breddegrad: 64-08N, lengdegrad: 021-54W, høyde over havet: 54 m

Gjeldene værobservasjon

Denne rapporten ble laget for 1 time og 7 minutter siden, klokken 23:00 UTC
Vind 5 kt fra Øst
Temperatur 2°C
Luftfuktighet 87%
Trykk 993 hPa
Sikt 10 km eller mer
ingen skyer under 1500 m og ingen bygeskyer

METAR: BIRK 222300Z 09005KT CAVOK 02/M00 Q0993

Tid: 00:07 (00:07 UTC)

Varsel

Denne rapporten ble laget for 1 time og 18 minutter siden, klokken 22:49 UTC
Varsel gyldig fra 23. klokken 00 UTC til 24. klokken 00 UTC
Vind 5 kt fra Øst-nordøst
Sikt 10 km eller mer
Spredte skyer i en høyde av 3000 ft
Blir
fra 23. klokken 04 UTC til 23. klokken 06 UTC
Vind 18 kt fra Nord-nordøst

TAF: BIRK 222249Z 2300/2400 07005KT 9999 SCT030 TX05/2315Z TN01/2303Z BECMG 2304/2306 02018KT

Værobservasjoner og værvarsel for over 4000 flyplasser (METAR- og TAF-rapporter).

Tilgjengelige stasjoner er representert av de røde og gule prikkene på kartet.

Hold musepekeren over prikken for å se navnet på stasjonen.

Klikk så for å se værobservasjoner og -varsler.

For å forandre kartet kan du klikke på den grønne knappen med svart kryss for å zoome inn, på den grønne knappen med strek for å zoome ut, eller på de grønne pilene for å se tilstøtende kart.


METAR-TAF: